Time;durP1;ratioP1;P1;durP2;ratioP2;P2;SDS_P1;SDS_P2;PMS_P1;PMS_P2;Temp;Humidity;BMP_temperature;BMP_pressure;BME280_temperature;BME280_humidity;BME280_pressure;Samples;Min_cycle;Max_cycle;Signal;HPM_P1;HPM_P2
2020/12/11 00:00:01;;;;;;;26.00;7.55;;;1.00;99.90;;;;;;5098148;28;20047;-73
2020/12/11 00:02:26;;;;;;;20.75;7.40;;;1.00;99.90;;;;;;5097783;28;20039;-73
2020/12/11 00:04:52;;;;;;;21.85;8.10;;;0.90;99.90;;;;;;5096344;28;20020;-73
2020/12/11 00:07:17;;;;;;;20.48;7.80;;;0.90;99.90;;;;;;5097667;28;20024;-73
2020/12/11 00:09:43;;;;;;;21.13;7.63;;;0.90;99.90;;;;;;5097282;28;20388;-73
2020/12/11 00:12:08;;;;;;;20.10;7.53;;;0.80;99.90;;;;;;5097643;28;20018;-74
2020/12/11 00:14:34;;;;;;;19.63;8.07;;;0.80;99.90;;;;;;5098230;28;20099;-74
2020/12/11 00:16:59;;;;;;;23.08;8.25;;;0.80;99.90;;;;;;5097701;28;20031;-74
2020/12/11 00:19:25;;;;;;;23.17;8.00;;;0.80;99.90;;;;;;5097782;28;20062;-74
2020/12/11 00:21:50;;;;;;;19.02;7.60;;;0.80;99.90;;;;;;5097875;28;20032;-74
2020/12/11 00:24:16;;;;;;;20.58;8.35;;;0.80;99.90;;;;;;5097778;28;20029;-74
2020/12/11 00:26:41;;;;;;;22.38;8.55;;;0.80;99.90;;;;;;5097671;28;20350;-73
2020/12/11 00:29:07;;;;;;;26.98;8.48;;;0.80;99.90;;;;;;5096032;28;20020;-72
2020/12/11 00:31:33;;;;;;;23.00;9.07;;;0.80;99.90;;;;;;5097887;28;20028;-72
2020/12/11 00:33:58;;;;;;;22.90;8.52;;;0.80;99.90;;;;;;5097109;28;20024;-73
2020/12/11 00:36:25;;;;;;;17.55;7.28;;;0.70;99.90;;;;;;5097359;28;20056;-74
2020/12/11 00:38:51;;;;;;;20.10;7.82;;;0.80;99.90;;;;;;5097252;28;20027;-74
2020/12/11 00:41:17;;;;;;;22.88;7.82;;;0.70;99.90;;;;;;5097752;28;20059;-71
2020/12/11 00:43:43;;;;;;;23.00;8.48;;;0.80;99.90;;;;;;5097393;28;20070;-72
2020/12/11 00:46:08;;;;;;;17.92;7.97;;;0.70;99.90;;;;;;5097066;28;20031;-75
2020/12/11 00:48:34;;;;;;;19.63;8.00;;;0.70;99.90;;;;;;5097157;28;20020;-74
2020/12/11 00:51:00;;;;;;;21.05;7.55;;;0.70;99.90;;;;;;5095977;28;20350;-75
2020/12/11 00:53:25;;;;;;;23.02;8.52;;;0.70;99.90;;;;;;5097443;28;20027;-74
2020/12/11 00:55:51;;;;;;;18.75;7.97;;;0.70;99.90;;;;;;5095029;28;20024;-73
2020/12/11 00:58:16;;;;;;;18.20;7.28;;;0.70;99.90;;;;;;5096161;28;20016;-73
2020/12/11 01:00:42;;;;;;;19.25;7.30;;;0.70;99.90;;;;;;5095800;28;20024;-72
2020/12/11 01:03:08;;;;;;;23.33;8.57;;;0.80;99.90;;;;;;5096693;28;20066;-72
2020/12/11 01:05:35;;;;;;;18.13;8.02;;;0.80;99.90;;;;;;5095524;28;20027;-73
2020/12/11 01:08:01;;;;;;;22.45;7.78;;;0.80;99.90;;;;;;5097048;28;20027;-73
2020/12/11 01:10:27;;;;;;;21.88;8.02;;;0.80;99.90;;;;;;5095790;28;20028;-73
2020/12/11 01:12:52;;;;;;;17.90;7.18;;;0.80;99.90;;;;;;5097149;28;20119;-73
2020/12/11 01:15:18;;;;;;;14.32;6.28;;;0.80;99.90;;;;;;5096944;28;20035;-74
2020/12/11 01:17:43;;;;;;;19.90;7.70;;;0.80;99.90;;;;;;5095055;28;20037;-73
2020/12/11 01:20:09;;;;;;;20.52;8.10;;;0.80;99.90;;;;;;5097016;28;20016;-73
2020/12/11 01:22:35;;;;;;;17.67;7.40;;;0.80;99.90;;;;;;5096120;28;20070;-73
2020/12/11 01:25:00;;;;;;;17.00;6.47;;;0.80;99.90;;;;;;5095029;28;20051;-73
2020/12/11 01:27:26;;;;;;;15.82;6.38;;;0.80;99.90;;;;;;5096731;28;20013;-73
2020/12/11 01:29:51;;;;;;;18.95;7.28;;;0.90;99.90;;;;;;5096353;28;20032;-73
2020/12/11 01:32:17;;;;;;;16.83;6.63;;;0.80;99.90;;;;;;5095155;28;20020;-74
2020/12/11 01:34:43;;;;;;;23.20;8.23;;;0.90;99.90;;;;;;5095985;28;20020;-74
2020/12/11 01:37:08;;;;;;;17.60;7.32;;;0.90;99.90;;;;;;5096210;28;20041;-74
2020/12/11 01:39:34;;;;;;;15.73;6.28;;;0.90;99.90;;;;;;5094643;28;20024;-72
2020/12/11 01:42:00;;;;;;;19.55;6.90;;;0.90;99.90;;;;;;5095897;28;20021;-73
2020/12/11 01:44:29;;;;;;;17.98;6.57;;;0.80;99.90;;;;;;5095952;28;20026;-73
2020/12/11 01:46:57;;;;;;;16.52;6.88;;;1.80;99.90;;;;;;5095096;28;20058;-73
2020/12/11 01:49:24;;;;;;;17.77;6.95;;;0.80;99.90;;;;;;5095823;28;20431;-73
2020/12/11 01:51:50;;;;;;;18.80;6.82;;;0.70;99.90;;;;;;5096402;28;20019;-73
2020/12/11 01:54:16;;;;;;;18.88;6.72;;;0.80;99.90;;;;;;5096036;28;20017;-73
2020/12/11 01:56:50;;;;;;;17.80;6.25;;;0.70;99.90;;;;;;5095362;28;20032;-73
2020/12/11 01:59:22;;;;;;;17.60;6.55;;;0.70;99.90;;;;;;5095925;28;20389;-73
2020/12/11 02:01:53;;;;;;;20.90;6.15;;;0.70;99.90;;;;;;5095487;28;20027;-75
2020/12/11 02:04:18;;;;;;;13.82;5.93;;;0.60;99.90;;;;;;5096492;28;20058;-75
2020/12/11 02:06:44;;;;;;;15.05;6.28;;;0.60;99.90;;;;;;5094608;28;20058;-74
2020/12/11 02:09:10;;;;;;;18.00;5.88;;;0.60;99.90;;;;;;5095383;28;20239;-74
2020/12/11 02:11:36;;;;;;;16.02;6.80;;;0.60;99.90;;;;;;5095405;28;20027;-73
2020/12/11 02:14:01;;;;;;;15.65;6.18;;;0.60;99.90;;;;;;5095412;28;20027;-73
2020/12/11 02:16:27;;;;;;;13.65;5.78;;;0.50;99.90;;;;;;5095500;28;20373;-73
2020/12/11 02:18:52;;;;;;;16.33;6.40;;;0.50;99.90;;;;;;5095173;28;20095;-73
2020/12/11 02:21:18;;;;;;;15.32;6.65;;;0.50;99.90;;;;;;5094916;28;20485;-73
2020/12/11 02:23:44;;;;;;;15.27;6.00;;;0.50;99.90;;;;;;5095434;28;20024;-74
2020/12/11 02:26:11;;;;;;;16.85;6.32;;;0.50;99.90;;;;;;5093663;28;20024;-74
2020/12/11 02:28:37;;;;;;;14.82;6.57;;;0.40;99.90;;;;;;5093896;28;20074;-74
2020/12/11 02:31:04;;;;;;;15.35;6.45;;;0.40;99.90;;;;;;5095111;28;20016;-74
2020/12/11 02:33:30;;;;;;;17.20;6.65;;;0.40;99.90;;;;;;5094891;28;20031;-74
2020/12/11 02:35:56;;;;;;;21.15;7.07;;;0.40;99.90;;;;;;5095006;28;20024;-74
2020/12/11 02:38:21;;;;;;;16.85;6.38;;;0.40;99.90;;;;;;5094770;28;20039;-72
2020/12/11 02:41:01;;;;;;;19.30;6.75;;;0.40;99.90;;;;;;5095372;28;20024;-72
2020/12/11 02:43:27;;;;;;;16.30;6.32;;;0.40;99.90;;;;;;5093760;28;20028;-74
2020/12/11 02:45:53;;;;;;;15.68;6.63;;;0.40;99.90;;;;;;5095596;28;20027;-73
2020/12/11 02:48:19;;;;;;;19.50;6.90;;;0.30;99.90;;;;;;5094993;28;20465;-72
2020/12/11 02:50:45;;;;;;;15.82;6.15;;;0.30;99.90;;;;;;5094838;28;20388;-74
2020/12/11 02:53:11;;;;;;;14.90;5.57;;;0.30;99.90;;;;;;5094657;28;20024;-73
2020/12/11 02:55:37;;;;;;;15.75;6.47;;;0.20;99.90;;;;;;5094978;28;20121;-73
2020/12/11 02:58:03;;;;;;;16.88;6.93;;;0.20;99.90;;;;;;5094580;28;20132;-73
2020/12/11 03:00:29;;;;;;;17.67;7.13;;;0.10;99.90;;;;;;5093441;28;20028;-73
2020/12/11 03:02:54;;;;;;;15.88;6.53;;;0.10;99.90;;;;;;5094261;28;20016;-73
2020/12/11 03:05:20;;;;;;;17.00;7.07;;;0.20;99.90;;;;;;5094190;28;20148;-73
2020/12/11 03:07:45;;;;;;;17.73;7.28;;;0.20;99.90;;;;;;5093129;28;20046;-74
2020/12/11 03:10:11;;;;;;;19.08;7.30;;;0.20;99.90;;;;;;5094166;28;20032;-72
2020/12/11 03:12:36;;;;;;;17.02;6.22;;;0.20;99.90;;;;;;5094506;28;20020;-73
2020/12/11 03:15:03;;;;;;;19.73;8.13;;;0.20;99.90;;;;;;5094345;28;20016;-73
2020/12/11 03:17:29;;;;;;;20.40;6.85;;;0.20;99.90;;;;;;5092511;28;20058;-73
2020/12/11 03:19:54;;;;;;;16.50;6.38;;;0.20;99.90;;;;;;5094025;28;20028;-73
2020/12/11 03:22:20;;;;;;;17.30;6.80;;;0.30;99.90;;;;;;5094092;28;20016;-72
2020/12/11 03:24:45;;;;;;;17.75;6.82;;;0.20;99.90;;;;;;5093034;28;20024;-72
2020/12/11 03:27:11;;;;;;;20.30;7.30;;;0.20;99.90;;;;;;5094056;28;20024;-72
2020/12/11 03:29:37;;;;;;;16.20;7.10;;;0.20;99.90;;;;;;5094057;28;20016;-72
2020/12/11 03:32:02;;;;;;;16.48;6.40;;;0.20;99.90;;;;;;5094535;28;20419;-74
2020/12/11 03:34:28;;;;;;;16.77;6.18;;;0.20;99.90;;;;;;5092977;28;20040;-74
2020/12/11 03:36:53;;;;;;;16.10;6.50;;;0.30;99.90;;;;;;5094821;28;20024;-74
2020/12/11 03:39:19;;;;;;;18.60;7.05;;;0.30;99.90;;;;;;5094104;28;20032;-72
2020/12/11 03:41:53;;;;;;;19.83;6.75;;;0.30;99.90;;;;;;5092764;28;20058;-72
2020/12/11 03:44:18;;;;;;;16.92;6.47;;;0.20;99.90;;;;;;5094313;28;20028;-72
2020/12/11 03:46:44;;;;;;;16.77;6.95;;;0.30;99.90;;;;;;5092735;28;20034;-72
2020/12/11 03:49:10;;;;;;;19.70;7.35;;;0.30;99.90;;;;;;5094130;28;20082;-75
2020/12/11 03:51:35;;;;;;;20.75;7.68;;;0.40;99.90;;;;;;5092794;28;20074;-73
2020/12/11 03:54:01;;;;;;;22.98;7.30;;;0.40;99.90;;;;;;5092434;28;20020;-73
2020/12/11 03:56:27;;;;;;;18.05;7.13;;;0.40;99.90;;;;;;5092807;28;20389;-73
2020/12/11 03:58:52;;;;;;;16.08;6.88;;;0.40;99.90;;;;;;5093613;28;20120;-73
2020/12/11 04:01:18;;;;;;;17.98;7.32;;;0.40;99.90;;;;;;5093896;28;20020;-73
2020/12/11 04:03:43;;;;;;;16.85;6.38;;;0.40;99.90;;;;;;5094162;28;20063;-73
2020/12/11 04:06:14;;;;;;;17.17;7.38;;;0.40;99.90;;;;;;5092428;28;20489;-73
2020/12/11 04:08:40;;;;;;;17.63;6.88;;;0.40;99.90;;;;;;5093612;28;20024;-73
2020/12/11 04:11:07;;;;;;;16.63;7.00;;;0.50;99.90;;;;;;5093956;28;20060;-73
2020/12/11 04:13:33;;;;;;;17.27;6.88;;;0.50;99.90;;;;;;5094379;28;20021;-74
2020/12/11 04:15:59;;;;;;;17.98;7.63;;;0.60;99.90;;;;;;5094290;28;20115;-72
2020/12/11 04:18:24;;;;;;;19.38;7.07;;;0.50;99.90;;;;;;5092817;28;20115;-72
2020/12/11 04:20:50;;;;;;;17.98;6.97;;;0.70;99.90;;;;;;5093996;28;20035;-73
2020/12/11 04:23:15;;;;;;;14.40;5.85;;;0.70;99.90;;;;;;5092346;28;20016;-73
2020/12/11 04:25:41;;;;;;;14.48;5.97;;;0.80;99.90;;;;;;5093758;28;20020;-72
2020/12/11 04:28:06;;;;;;;17.52;6.85;;;0.80;99.90;;;;;;5094025;28;20023;-73
2020/12/11 04:30:32;;;;;;;15.43;6.15;;;0.80;99.90;;;;;;5094600;28;20020;-75
2020/12/11 04:33:00;;;;;;;19.30;7.28;;;0.80;99.90;;;;;;5096033;28;20473;-75
2020/12/11 04:35:25;;;;;;;18.30;7.18;;;0.90;99.90;;;;;;5096044;28;20020;-74
2020/12/11 04:37:51;;;;;;;18.92;7.10;;;0.80;99.90;;;;;;5097514;28;20028;-75
2020/12/11 04:40:17;;;;;;;17.38;6.72;;;0.80;99.90;;;;;;5097206;28;20020;-73
2020/12/11 04:42:46;;;;;;;17.25;6.70;;;0.80;99.90;;;;;;5097266;28;20024;-74
2020/12/11 04:45:18;;;;;;;;;;;0.80;99.90;;;;;;5096273;28;20020;-73
2020/12/11 04:47:45;;;;;;;18.52;6.72;;;0.70;99.90;;;;;;5095910;28;19904;-71
2020/12/11 04:50:15;;;;;;;19.17;6.75;;;0.80;99.90;;;;;;5095657;28;20085;-71
2020/12/11 04:52:43;;;;;;;20.42;7.43;;;0.70;99.90;;;;;;5096007;28;20024;-72
2020/12/11 04:55:17;;;;;;;11.93;4.93;;;0.60;99.90;;;;;;5097164;28;20031;-71
2020/12/11 04:57:48;;;;;;;16.42;6.80;;;0.70;99.90;;;;;;5096709;28;20024;-72
2020/12/11 05:00:15;;;;;;;16.55;6.30;;;0.70;99.90;;;;;;5095720;28;20453;-73
2020/12/11 05:02:45;;;;;;;15.07;6.45;;;0.70;99.90;;;;;;5097201;28;20028;-73
2020/12/11 05:05:11;;;;;;;18.00;7.07;;;0.70;99.90;;;;;;5095492;28;20032;-73
2020/12/11 05:07:38;;;;;;;15.50;5.82;;;0.60;99.90;;;;;;5095295;28;20055;-73
2020/12/11 05:10:08;;;;;;;15.60;6.38;;;0.70;99.90;;;;;;5096728;28;20557;-73
2020/12/11 05:12:34;;;;;;;17.67;6.07;;;0.70;99.90;;;;;;5095720;28;20020;-73
2020/12/11 05:15:08;;;;;;;18.02;6.78;;;0.60;99.90;;;;;;5096704;28;20009;-73
2020/12/11 05:17:36;;;;;;;16.08;6.32;;;0.70;99.90;;;;;;5096557;28;20021;-74
2020/12/11 05:20:03;;;;;;;12.65;4.82;;;0.60;99.90;;;;;;5094901;28;20024;-74
2020/12/11 05:22:35;;;;;;;17.63;7.15;;;0.60;99.90;;;;;;5095006;28;20024;-72
2020/12/11 05:25:01;;;;;;;17.02;6.70;;;0.60;99.90;;;;;;5096093;28;20481;-72
2020/12/11 05:27:33;;;;;;;14.85;6.22;;;0.60;99.90;;;;;;5094789;28;20023;-74
2020/12/11 05:30:00;;;;;;;20.85;7.68;;;0.60;99.90;;;;;;5095853;28;20028;-73
2020/12/11 05:32:54;;;;;;;16.40;6.03;;;0.70;99.90;;;;;;5094784;28;20107;-74
2020/12/11 05:35:20;;;;;;;14.43;5.93;;;0.70;99.90;;;;;;5095947;28;20473;-73
2020/12/11 05:37:47;;;;;;;17.40;6.70;;;0.80;99.90;;;;;;5094752;28;20028;-72
2020/12/11 05:40:28;;;;;;;17.77;6.47;;;0.80;99.90;;;;;;5094482;28;20481;-72
2020/12/11 05:43:20;;;;;;;14.68;5.40;;;0.90;99.90;;;;;;5096935;28;20031;-72
2020/12/11 05:45:51;;;;;;;16.88;6.65;;;0.90;99.90;;;;;;5093489;28;20044;-72
2020/12/11 05:48:18;;;;;;;14.63;6.50;;;1.00;99.90;;;;;;5095962;28;20050;-72
2020/12/11 05:50:44;;;;;;;14.90;6.63;;;1.10;99.90;;;;;;5096160;28;20036;-73
2020/12/11 05:53:09;;;;;;;15.82;6.70;;;1.10;99.90;;;;;;5094572;28;20020;-73
2020/12/11 05:55:35;;;;;;;16.45;5.88;;;1.10;99.90;;;;;;5095953;28;20024;-73
2020/12/11 05:58:01;;;;;;;16.67;5.97;;;1.10;99.90;;;;;;5094588;28;20066;-73
2020/12/11 06:00:27;;;;;;;17.55;6.55;;;1.20;99.90;;;;;;5095733;28;20023;-73
2020/12/11 06:02:54;;;;;;;15.75;5.85;;;1.20;99.90;;;;;;5095649;28;20062;-73
2020/12/11 06:05:26;;;;;;;14.32;6.32;;;1.20;99.90;;;;;;5094096;28;20032;-73
2020/12/11 06:07:52;;;;;;;17.92;6.40;;;1.20;99.90;;;;;;5095850;28;20042;-73
2020/12/11 06:10:22;;;;;;;18.77;7.18;;;1.20;99.90;;;;;;5095454;28;20083;-73
2020/12/11 06:12:49;;;;;;;15.93;6.85;;;1.30;99.90;;;;;;5095304;28;20056;-73
2020/12/11 06:15:40;;;;;;;14.38;6.20;;;1.30;99.90;;;;;;5094168;28;20016;-73
2020/12/11 06:18:19;;;;;;;12.88;5.38;;;1.40;99.90;;;;;;5095386;28;20095;-73
2020/12/11 06:20:47;;;;;;;14.93;5.90;;;1.50;99.90;;;;;;5095708;28;20044;-73
2020/12/11 06:23:22;;;;;;;11.73;5.15;;;1.50;99.90;;;;;;5093837;28;20008;-73
2020/12/11 06:25:53;;;;;;;12.88;5.22;;;1.60;99.90;;;;;;5093674;28;20564;-73
2020/12/11 06:28:48;;;;;;;18.00;6.70;;;1.60;99.90;;;;;;5095134;28;20485;-73
2020/12/11 06:31:22;;;;;;;16.05;6.13;;;1.60;99.90;;;;;;5067288;28;20063;-73
2020/12/11 06:33:53;;;;;;;18.13;5.60;;;1.70;99.90;;;;;;5095238;28;20389;-73
2020/12/11 06:36:19;;;;;;;15.00;5.70;;;1.70;99.90;;;;;;5094497;28;20073;-73
2020/12/11 06:38:44;;;;;;;14.88;6.00;;;1.70;99.90;;;;;;5095092;28;20026;-72
2020/12/11 06:41:11;;;;;;;13.85;5.60;;;1.70;99.90;;;;;;5093600;28;20028;-73
2020/12/11 06:43:38;;;;;;;16.92;6.68;;;1.80;99.90;;;;;;5093530;28;20024;-73
2020/12/11 06:46:20;;;;;;;14.77;6.13;;;1.80;99.90;;;;;;5095400;28;20024;-73
2020/12/11 06:49:04;;;;;;;13.27;5.82;;;1.80;99.90;;;;;;5094716;28;20095;-73
2020/12/11 06:51:30;;;;;;;16.80;5.95;;;1.90;99.90;;;;;;5093415;28;20024;-75
2020/12/11 06:53:55;;;;;;;13.57;5.68;;;1.90;99.90;;;;;;5094771;28;20069;-74
2020/12/11 06:56:51;;;;;;;18.95;6.93;;;1.90;99.90;;;;;;5094673;28;20032;-71
2020/12/11 06:59:27;;;;;;;13.60;5.68;;;2.00;99.90;;;;;;5094758;28;20016;-73
2020/12/11 07:01:53;;;;;;;18.55;7.05;;;2.00;99.90;;;;;;5093136;28;20035;-73
2020/12/11 07:04:19;;;;;;;14.32;6.30;;;1.90;99.90;;;;;;5094540;28;20031;-75
2020/12/11 07:06:53;;;;;;;16.80;6.47;;;1.90;99.90;;;;;;5093376;28;20034;-74
2020/12/11 07:09:20;;;;;;;14.48;6.07;;;1.90;99.90;;;;;;5094467;28;20032;-75
2020/12/11 07:11:48;;;;;;;18.80;6.95;;;2.00;99.90;;;;;;5093402;28;20059;-73
2020/12/11 07:14:14;;;;;;;14.05;5.60;;;2.00;99.90;;;;;;5080948;28;20504;-71
2020/12/11 07:16:41;;;;;;;15.38;6.20;;;2.00;99.90;;;;;;5094966;28;20016;-72
2020/12/11 07:19:07;;;;;;;11.60;5.05;;;2.00;99.90;;;;;;5095433;28;20020;-74
2020/12/11 07:21:33;;;;;;;18.45;6.72;;;2.00;99.90;;;;;;5095088;28;20385;-72
2020/12/11 07:24:00;;;;;;;17.25;6.13;;;2.10;99.90;;;;;;5094096;28;20016;-74
2020/12/11 07:26:26;;;;;;;14.23;6.05;;;2.10;99.90;;;;;;5074564;28;20405;-72
2020/12/11 07:29:04;;;;;;;16.15;6.03;;;2.00;99.90;;;;;;5073136;28;20020;-71
2020/12/11 07:31:43;;;;;;;13.90;5.90;;;2.10;99.90;;;;;;5073064;28;20397;-72
2020/12/11 07:34:17;;;;;;;13.43;5.97;;;2.10;99.90;;;;;;5074007;28;20027;-71
2020/12/11 07:36:47;;;;;;;16.67;6.53;;;2.10;99.90;;;;;;5072601;28;20028;-71
2020/12/11 07:39:16;;;;;;;17.42;6.57;;;2.10;99.90;;;;;;5075785;28;20025;-71
2020/12/11 07:41:45;;;;;;;15.35;5.85;;;2.10;99.90;;;;;;5073903;28;20060;-72
2020/12/11 07:44:33;;;;;;;15.47;6.07;;;2.10;99.90;;;;;;5073960;28;20028;-71
2020/12/11 07:47:10;;;;;;;15.70;5.60;;;2.20;99.90;;;;;;5074290;28;20290;-72
2020/12/11 07:49:44;;;;;;;13.93;5.85;;;2.20;99.90;;;;;;5112463;22;20512;-72
2020/12/11 07:52:10;;;;;;;14.57;6.10;;;2.10;99.90;;;;;;5094842;28;20016;-74
2020/12/11 07:54:41;;;;;;;13.07;5.72;;;2.20;99.90;;;;;;5093688;28;20093;-75
2020/12/11 07:57:17;;;;;;;13.07;5.47;;;2.20;99.90;;;;;;5093876;28;20077;-75
2020/12/11 07:59:56;;;;;;;15.40;6.20;;;2.20;99.90;;;;;;5074533;28;20028;-74
2020/12/11 08:02:23;;;;;;;13.75;5.65;;;2.20;99.90;;;;;;5072659;28;20021;-74
2020/12/11 08:04:49;;;;;;;14.25;5.85;;;2.30;99.90;;;;;;5074545;28;20024;-75
2020/12/11 08:07:28;;;;;;;15.18;6.28;;;2.30;99.90;;;;;;5077134;28;20103;-75
2020/12/11 08:10:05;;;;;;;14.10;5.93;;;2.30;99.90;;;;;;5076527;28;20020;-74
2020/12/11 08:12:30;;;;;;;15.05;5.95;;;2.30;99.90;;;;;;5077343;28;20108;-75
2020/12/11 08:14:56;;;;;;;13.65;5.70;;;2.30;99.90;;;;;;5077773;28;20095;-74
2020/12/11 08:17:22;;;;;;;13.27;5.38;;;2.30;99.90;;;;;;5077368;28;20097;-74
2020/12/11 08:20:03;;;;;;;13.50;5.50;;;2.40;99.90;;;;;;5077636;28;20012;-74
2020/12/11 08:22:39;;;;;;;14.48;5.70;;;2.40;99.90;;;;;;5077592;28;20029;-74
2020/12/11 08:25:21;;;;;;;15.75;6.60;;;2.40;99.90;;;;;;5076334;28;20027;-74
2020/12/11 08:27:47;;;;;;;12.93;5.57;;;2.30;99.90;;;;;;5075832;28;20060;-74
2020/12/11 08:30:14;;;;;;;17.52;5.95;;;2.30;99.90;;;;;;5075941;28;20024;-75
2020/12/11 08:32:41;;;;;;;12.88;4.97;;;2.30;99.90;;;;;;5077149;28;20066;-75
2020/12/11 08:35:17;;;;;;;15.75;6.03;;;2.30;99.90;;;;;;5077244;28;20017;-75
2020/12/11 08:37:56;;;;;;;15.93;5.80;;;2.30;99.90;;;;;;5075904;28;20029;-75
2020/12/11 08:40:22;;;;;;;13.40;5.85;;;2.40;99.90;;;;;;5077299;28;20016;-75
2020/12/11 08:43:32;;;;;;;24.33;6.28;;;2.40;99.90;;;;;;5076919;28;20485;-74
2020/12/11 08:46:08;;;;;;;13.50;5.22;;;2.40;99.90;;;;;;5076289;28;20040;-74
2020/12/11 08:51:23;;;;;;;16.02;6.18;;;2.30;99.90;;;;;;5076636;28;20028;-75
2020/12/11 08:53:50;;;;;;;15.38;6.07;;;2.40;99.90;;;;;;5076568;28;20023;-74
2020/12/11 08:56:16;;;;;;;16.20;6.45;;;2.40;99.90;;;;;;5073707;28;20051;-75
2020/12/11 08:58:41;;;;;;;14.02;5.28;;;2.40;99.90;;;;;;5075036;28;20089;-75
2020/12/11 09:01:07;;;;;;;12.07;4.95;;;2.40;99.90;;;;;;5074916;28;20020;-75
2020/12/11 09:03:32;;;;;;;12.30;5.70;;;2.40;99.90;;;;;;5076486;28;20028;-75
2020/12/11 09:05:58;;;;;;;17.17;6.32;;;2.50;99.90;;;;;;5076386;28;20036;-75
2020/12/11 09:08:23;;;;;;;17.13;6.50;;;2.50;99.90;;;;;;5076622;28;20025;-74
2020/12/11 09:10:49;;;;;;;13.77;5.60;;;2.50;99.90;;;;;;5122256;22;20041;-72
2020/12/11 09:13:14;;;;;;;13.18;6.05;;;2.60;99.90;;;;;;5076045;28;20020;-72
2020/12/11 09:15:40;;;;;;;12.85;5.25;;;2.60;99.90;;;;;;5075941;28;20021;-72
2020/12/11 09:18:05;;;;;;;12.60;5.97;;;2.70;99.90;;;;;;5059392;28;20020;-72
2020/12/11 09:20:33;;;;;;;13.18;6.05;;;2.70;99.90;;;;;;5076282;28;20013;-72
2020/12/11 09:22:59;;;;;;;13.45;5.35;;;2.70;99.90;;;;;;5076088;28;20025;-72
2020/12/11 09:25:24;;;;;;;13.00;5.85;;;2.80;99.90;;;;;;5058062;28;20443;-71
2020/12/11 09:27:50;;;;;;;14.57;6.00;;;2.80;99.90;;;;;;5076195;28;20020;-71
2020/12/11 09:30:28;;;;;;;13.00;5.40;;;2.80;99.90;;;;;;5059325;28;20107;-72
2020/12/11 09:33:05;;;;;;;13.60;5.03;;;2.90;99.90;;;;;;5075911;28;20038;-71
2020/12/11 09:35:31;;;;;;;14.88;5.80;;;2.90;99.90;;;;;;5075724;28;20021;-73
2020/12/11 09:37:58;;;;;;;12.32;5.25;;;2.90;99.90;;;;;;5075589;28;20040;-71
2020/12/11 09:40:47;;;;;;;13.68;5.85;;;2.90;99.90;;;;;;5075817;28;20377;-71
2020/12/11 09:45:53;;;;;;;13.48;5.43;;;2.90;99.90;;;;;;5075951;28;20036;-73
2020/12/11 09:53:44;;;;;;;12.25;4.78;;;3.00;99.90;;;;;;5075465;28;20024;-72
2020/12/11 09:56:04;;;;;;;12.63;5.13;;;3.10;99.90;;;;;;5074219;28;20036;-72
2020/12/11 09:58:31;;;;;;;12.45;6.15;;;3.10;99.90;;;;;;5057525;28;20083;-72
2020/12/11 10:00:57;;;;;;;18.85;5.90;;;3.10;99.90;;;;;;5075217;28;20021;-72
2020/12/11 10:03:24;;;;;;;14.27;6.78;;;3.20;99.90;;;;;;5075100;28;20519;-72
2020/12/11 10:05:50;;;;;;;15.20;6.07;;;3.20;99.90;;;;;;5074985;28;20029;-73
2020/12/11 10:08:16;;;;;;;14.18;5.80;;;3.20;99.90;;;;;;5075183;28;20028;-72
2020/12/11 10:10:41;;;;;;;15.38;5.93;;;3.20;99.90;;;;;;5075261;28;20032;-72
2020/12/11 10:13:07;;;;;;;14.85;5.95;;;3.20;99.90;;;;;;5075537;28;20027;-72
2020/12/11 10:15:33;;;;;;;11.30;5.22;;;3.20;99.90;;;;;;5075228;28;20401;-72
2020/12/11 10:18:03;;;;;;;13.20;5.65;;;3.20;99.90;;;;;;5074594;28;20024;-72
2020/12/11 10:20:29;;;;;;;13.77;5.45;;;3.20;99.90;;;;;;5056995;28;20055;-72
2020/12/11 10:22:55;;;;;;;10.27;5.10;;;3.30;99.90;;;;;;5075333;28;20059;-72
2020/12/11 10:25:21;;;;;;;12.60;5.45;;;3.30;99.90;;;;;;5056683;28;20029;-72
2020/12/11 10:27:47;;;;;;;12.13;4.40;;;3.30;99.90;;;;;;5055688;28;20507;-72
2020/12/11 10:30:12;;;;;;;11.45;5.22;;;3.30;99.90;;;;;;5056724;28;20526;-72
2020/12/11 10:32:38;;;;;;;12.57;5.35;;;3.40;99.90;;;;;;5074590;28;20021;-72
2020/12/11 10:35:05;;;;;;;12.70;5.25;;;3.50;99.90;;;;;;5074656;28;20016;-72
2020/12/11 10:37:31;;;;;;;13.07;5.82;;;3.50;99.90;;;;;;5074420;28;20024;-72
2020/12/11 10:39:57;;;;;;;13.38;5.93;;;3.60;99.90;;;;;;5075043;28;20372;-72
2020/12/11 10:42:23;;;;;;;12.38;5.43;;;3.50;99.90;;;;;;5056346;28;20035;-72
2020/12/11 10:44:49;;;;;;;14.88;6.20;;;3.50;99.90;;;;;;5074554;28;20032;-72
2020/12/11 10:47:14;;;;;;;13.10;5.80;;;3.50;99.90;;;;;;5074231;28;20035;-72
2020/12/11 10:49:40;;;;;;;13.32;5.40;;;3.40;99.90;;;;;;5073960;28;20020;-72
2020/12/11 10:52:06;;;;;;;12.90;5.38;;;3.40;99.90;;;;;;5056255;28;20028;-72
2020/12/11 10:54:31;;;;;;;14.50;5.63;;;3.40;99.90;;;;;;5074899;28;20025;-72
2020/12/11 10:56:57;;;;;;;12.25;5.22;;;3.40;99.90;;;;;;5056054;28;20042;-72
2020/12/11 10:59:23;;;;;;;15.27;5.38;;;3.40;99.90;;;;;;5056065;28;20075;-72
2020/12/11 11:01:49;;;;;;;12.38;5.15;;;3.40;99.90;;;;;;5056026;28;20028;-71
2020/12/11 11:04:16;;;;;;;10.25;4.65;;;3.50;99.90;;;;;;5074047;28;20082;-71
2020/12/11 11:06:49;;;;;;;11.48;5.25;;;3.50;99.90;;;;;;5073818;28;20054;-72
2020/12/11 11:11:44;;;;;;;13.10;5.28;;;3.50;99.90;;;;;;5074047;28;20056;-72
2020/12/11 11:17:21;;;;;;;14.45;5.75;;;3.60;99.90;;;;;;5074690;28;20039;-72
2020/12/11 11:22:53;;;;;;;13.15;5.57;;;3.60;99.90;;;;;;4973412;28;20542;-72
2020/12/11 11:28:04;;;;;;;11.10;5.50;;;3.60;99.90;;;;;;5074407;28;20074;-72
2020/12/11 11:30:33;;;;;;;11.77;5.45;;;3.70;99.90;;;;;;5073667;28;20020;-72
2020/12/11 11:32:59;;;;;;;;;;;3.70;99.90;;;;;;5056115;28;20056;-72
2020/12/11 11:35:25;;;;;;;10.93;5.05;;;3.70;99.90;;;;;;5073932;28;19904;-72
2020/12/11 11:37:50;;;;;;;12.63;5.22;;;3.70;99.90;;;;;;5055545;28;20017;-72
2020/12/11 11:40:17;;;;;;;13.10;5.88;;;3.70;99.90;;;;;;5059669;28;20028;-72
2020/12/11 11:42:43;;;;;;;12.35;5.47;;;3.70;99.90;;;;;;5059685;28;20494;-72
2020/12/11 11:45:11;;;;;;;13.35;5.75;;;3.70;99.90;;;;;;5059721;28;20021;-72
2020/12/11 11:47:40;;;;;;;13.65;6.30;;;3.70;99.90;;;;;;5078033;28;20017;-72
2020/12/11 11:50:27;;;;;;;11.65;5.40;;;3.70;99.90;;;;;;5059590;28;20540;-72
2020/12/11 11:53:00;;;;;;;15.45;6.70;;;3.80;99.90;;;;;;5077567;28;20020;-72
2020/12/11 11:55:26;;;;;;;14.88;6.50;;;3.80;99.90;;;;;;5059594;28;20016;-72
2020/12/11 11:57:52;;;;;;;15.90;7.13;;;3.80;99.90;;;;;;5077770;28;20454;-72
2020/12/11 12:00:17;;;;;;;16.65;6.72;;;3.80;99.90;;;;;;5077944;28;20104;-72
2020/12/11 12:02:43;;;;;;;14.90;6.47;;;3.80;99.90;;;;;;5077653;28;20159;-72
2020/12/11 12:05:10;;;;;;;16.70;6.47;;;3.80;99.90;;;;;;5077493;28;20568;-72
2020/12/11 12:07:35;;;;;;;17.85;7.47;;;3.80;99.90;;;;;;5059062;28;20101;-72
2020/12/11 12:10:08;;;;;;;25.60;7.28;;;3.80;99.90;;;;;;5076809;28;20029;-72
2020/12/11 12:12:37;;;;;;;15.30;6.80;;;3.80;99.90;;;;;;5076896;28;20028;-72
2020/12/11 12:15:19;;;;;;;14.00;6.68;;;3.80;99.90;;;;;;5059023;28;20032;-72
2020/12/11 12:17:52;;;;;;;13.18;6.13;;;3.80;99.90;;;;;;5077006;28;20025;-72
2020/12/11 12:20:26;;;;;;;15.82;7.05;;;3.70;99.90;;;;;;5076815;28;20390;-72
2020/12/11 12:30:39;;;;;;;16.15;7.13;;;3.80;99.90;;;;;;5076624;28;20509;-72
2020/12/11 12:35:59;;;;;;;17.27;7.45;;;3.80;99.90;;;;;;5077215;28;20068;-72
2020/12/11 12:43:40;;;;;;;19.60;6.78;;;4.00;99.90;;;;;;5076419;28;20069;-72
2020/12/11 12:46:06;;;;;;;15.25;7.00;;;4.00;99.90;;;;;;5076828;28;20033;-72
2020/12/11 12:48:31;;;;;;;15.82;6.70;;;4.10;99.90;;;;;;5076252;28;20017;-72
2020/12/11 12:50:57;;;;;;;14.93;7.65;;;4.10;99.90;;;;;;5057533;28;20186;-72
2020/12/11 12:53:22;;;;;;;14.25;6.32;;;4.10;99.90;;;;;;5058611;28;20031;-72
2020/12/11 12:56:33;;;;;;;15.05;6.53;;;4.20;99.90;;;;;;5058189;28;20036;-72
2020/12/11 12:58:41;;;;;;;14.23;6.57;;;4.20;99.90;;;;;;5076059;28;20613;-72
2020/12/11 13:01:19;;;;;;;15.10;6.43;;;4.20;99.90;;;;;;5058722;28;20031;-72
2020/12/11 13:06:30;;;;;;;14.52;6.95;;;4.30;99.90;;;;;;5035245;28;20040;-71
2020/12/11 13:08:56;;;;;;;15.05;7.63;;;4.30;99.90;;;;;;5075690;28;20058;-73
2020/12/11 13:11:21;;;;;;;12.80;6.15;;;4.20;99.90;;;;;;5058145;28;20613;-73
2020/12/11 13:13:46;;;;;;;13.90;6.50;;;4.30;99.90;;;;;;5076220;28;20025;-73
2020/12/11 13:16:12;;;;;;;15.90;7.00;;;4.20;99.90;;;;;;5075958;28;20024;-74
2020/12/11 13:18:38;;;;;;;15.27;6.15;;;4.20;99.90;;;;;;5075735;28;20025;-73
2020/12/11 13:21:06;;;;;;;13.65;6.75;;;4.20;99.90;;;;;;5057826;28;20047;-73
2020/12/11 13:26:23;;;;;;;17.52;7.20;;;4.20;99.90;;;;;;5075719;28;20036;-73
2020/12/11 13:28:49;;;;;;;14.30;6.50;;;4.20;99.90;;;;;;5075633;28;20052;-73
2020/12/11 13:31:18;;;;;;;15.30;7.38;;;4.10;99.90;;;;;;5074966;28;20028;-73
2020/12/11 13:33:44;;;;;;;15.98;7.40;;;4.10;99.90;;;;;;5074469;28;20032;-73
2020/12/11 13:36:09;;;;;;;15.05;6.75;;;4.20;99.90;;;;;;5075826;28;20028;-73